Time;durP1;ratioP1;P1;durP2;ratioP2;P2;SDS_P1;SDS_P2;PMS_P1;PMS_P2;Temp;Humidity;BMP_temperature;BMP_pressure;BME280_temperature;BME280_humidity;BME280_pressure;Samples;Min_cycle;Max_cycle;Signal;HPM_P1;HPM_P2
2024/03/02 00:01:08;;;;;;;35.50;27.50;;;;;;;5.82;100.00;98946.86;451657;1252;139458;-64
2024/03/02 00:11:15;;;;;;;35.00;25.50;;;;;;;5.86;100.00;98944.71;451685;1252;140602;-63
2024/03/02 00:21:22;;;;;;;32.70;23.80;;;;;;;5.88;100.00;98939.05;451619;1252;139874;-65
2024/03/02 00:31:28;;;;;;;26.00;21.30;;;;;;;5.87;100.00;98950.24;451906;1252;139883;-63
2024/03/02 00:41:35;;;;;;;28.40;21.40;;;;;;;5.87;100.00;98948.86;451747;1252;139492;-59
2024/03/02 00:51:42;;;;;;;30.30;24.20;;;;;;;5.86;100.00;98943.67;451800;1252;139903;-59
2024/03/02 01:01:48;;;;;;;26.50;22.90;;;;;;;5.87;100.00;98938.40;451991;1252;140076;-63
2024/03/02 01:11:54;;;;;;;28.40;21.70;;;;;;;5.89;100.00;98938.33;451845;1252;139897;-67
2024/03/02 01:22:00;;;;;;;29.70;23.70;;;;;;;5.88;100.00;98943.94;451823;1252;140088;-67
2024/03/02 01:32:07;;;;;;;27.20;21.30;;;;;;;5.85;100.00;98937.50;451899;1252;139778;-64
2024/03/02 01:42:13;;;;;;;27.20;22.30;;;;;;;5.82;100.00;98944.63;451687;1252;139656;-63
2024/03/02 01:52:20;;;;;;;26.60;23.00;;;;;;;5.76;100.00;98935.38;451367;1252;139639;-64
2024/03/02 02:02:26;;;;;;;33.00;22.40;;;;;;;5.74;100.00;98926.29;451341;1253;139955;-62
2024/03/02 02:12:32;;;;;;;24.60;20.40;;;;;;;5.75;100.00;98927.44;451528;1252;139362;-63
2024/03/02 02:22:40;;;;;;;23.80;19.20;;;;;;;5.75;100.00;98924.45;451546;1252;139713;-63
2024/03/02 02:32:46;;;;;;;27.70;21.60;;;;;;;5.77;100.00;98911.71;451384;1252;139740;-67
2024/03/02 02:42:52;;;;;;;29.00;21.00;;;;;;;5.77;100.00;98899.05;451478;1252;139375;-67
2024/03/02 02:52:58;;;;;;;23.60;18.80;;;;;;;5.74;100.00;98891.05;451328;1252;139919;-68
2024/03/02 03:03:06;;;;;;;27.00;21.20;;;;;;;5.70;100.00;98887.77;451401;1252;139854;-67
2024/03/02 03:13:13;;;;;;;24.80;19.80;;;;;;;5.69;100.00;98887.15;451495;1253;139212;-68
2024/03/02 03:23:19;;;;;;;27.20;21.10;;;;;;;5.68;100.00;98888.75;451399;1252;139676;-67
2024/03/02 03:33:25;;;;;;;23.20;19.70;;;;;;;5.69;100.00;98887.11;451735;1253;140066;-67
2024/03/02 03:43:31;;;;;;;23.70;18.80;;;;;;;5.74;100.00;98885.98;451889;1253;139836;-67
2024/03/02 03:53:37;;;;;;;25.50;22.10;;;;;;;5.80;100.00;98876.99;451815;1252;139308;-60
2024/03/02 04:03:43;;;;;;;25.10;20.20;;;;;;;5.83;100.00;98876.14;451732;1252;139880;-60
2024/03/02 04:13:49;;;;;;;24.80;19.40;;;;;;;5.83;100.00;98877.36;451901;1253;139896;-59
2024/03/02 04:23:58;;;;;;;24.80;19.40;;;;;;;5.79;100.00;98876.52;451779;1253;140111;-60
2024/03/02 04:34:04;;;;;;;26.30;20.20;;;;;;;5.63;100.00;98875.45;451740;1252;139567;-60
2024/03/02 04:44:10;;;;;;;22.40;19.30;;;;;;;5.45;100.00;98875.94;451899;1253;139181;-63
2024/03/02 04:54:16;;;;;;;25.00;19.20;;;;;;;5.35;100.00;98893.13;451653;1253;139503;-63
2024/03/02 05:04:22;;;;;;;26.20;20.70;;;;;;;5.37;100.00;98890.23;451792;1253;139325;-67
2024/03/02 05:14:28;;;;;;;26.40;20.20;;;;;;;5.34;100.00;98899.05;451750;1252;139369;-67
2024/03/02 05:24:35;;;;;;;24.60;20.00;;;;;;;5.25;100.00;98895.03;451903;1254;139596;-63
2024/03/02 05:34:41;;;;;;;31.70;21.40;;;;;;;5.13;100.00;98900.86;451763;1253;139283;-63
2024/03/02 05:44:47;;;;;;;24.30;19.70;;;;;;;5.06;100.00;98909.17;451763;1252;140045;-67
2024/03/02 05:54:53;;;;;;;29.90;23.30;;;;;;;5.05;100.00;98915.47;451827;1253;139796;-68
2024/03/02 06:04:59;;;;;;;21.90;19.50;;;;;;;5.05;100.00;98916.53;451871;1253;139842;-63
2024/03/02 06:15:06;;;;;;;24.60;20.30;;;;;;;5.07;100.00;98924.27;451826;1253;140554;-63
2024/03/02 06:25:13;;;;;;;28.00;20.70;;;;;;;5.15;100.00;98929.37;452031;1253;139607;-63
2024/03/02 06:35:18;;;;;;;27.90;21.70;;;;;;;5.29;100.00;98928.66;451809;1252;139770;-63
2024/03/02 06:45:25;;;;;;;29.60;23.60;;;;;;;5.40;100.00;98942.32;451320;1253;339561;-63
2024/03/02 06:55:31;;;;;;;27.90;22.00;;;;;;;5.54;100.00;98944.55;451850;1253;139855;-67
2024/03/02 07:05:37;;;;;;;30.90;23.90;;;;;;;5.67;100.00;98959.48;451769;1253;140357;-67
2024/03/02 07:16:12;;;;;;;30.10;23.80;;;;;;;5.83;100.00;98962.63;451803;1253;139808;-64
2024/03/02 07:26:18;;;;;;;33.70;24.80;;;;;;;6.19;100.00;98968.49;451905;1253;139237;-64
2024/03/02 07:36:28;;;;;;;28.60;24.70;;;;;;;6.85;100.00;98971.02;451898;1253;140726;-59
2024/03/02 07:46:34;;;;;;;26.50;21.70;;;;;;;7.22;100.00;98981.05;451733;1253;140941;-60
2024/03/02 07:56:40;;;;;;;29.10;22.80;;;;;;;7.31;100.00;98985.08;451827;1253;140957;-63
2024/03/02 08:06:47;;;;;;;31.70;24.90;;;;;;;7.43;100.00;98990.08;451971;1253;140115;-64
2024/03/02 08:16:53;;;;;;;28.40;21.30;;;;;;;7.59;100.00;99007.75;451830;1254;139938;-69
2024/03/02 08:27:00;;;;;;;32.40;24.00;;;;;;;7.76;100.00;99008.84;451663;1253;139728;-68
2024/03/02 08:37:06;;;;;;;31.40;23.10;;;;;;;8.22;100.00;99018.86;451839;1253;139205;-63
2024/03/02 08:47:13;;;;;;;37.00;25.20;;;;;;;8.37;100.00;99007.47;451709;1256;140121;-64
2024/03/02 08:57:19;;;;;;;25.60;20.50;;;;;;;8.43;100.00;99002.02;451624;1253;139586;-69
2024/03/02 09:07:25;;;;;;;32.50;22.50;;;;;;;8.72;100.00;99010.65;451873;1256;139862;-68
2024/03/02 09:17:31;;;;;;;30.40;23.00;;;;;;;8.76;100.00;99017.41;451697;1254;140029;-68
2024/03/02 09:27:38;;;;;;;28.80;20.90;;;;;;;8.76;100.00;99022.97;451704;1254;140213;-60
2024/03/02 09:37:43;;;;;;;;;;;;;;;8.85;100.00;99020.10;451854;1256;140114;-60
2024/03/02 09:47:49;;;;;;;31.20;23.00;;;;;;;8.91;100.00;99018.83;451703;1254;125609;-59
2024/03/02 09:57:55;;;;;;;30.10;23.30;;;;;;;9.01;100.00;99014.87;451681;1255;139955;-60
2024/03/02 10:08:07;;;;;;;28.50;23.90;;;;;;;9.04;100.00;99017.67;451623;1254;139747;-61
2024/03/02 10:18:13;;;;;;;33.10;24.30;;;;;;;9.17;100.00;99011.54;451220;1254;140284;-59
2024/03/02 10:28:21;;;;;;;30.60;21.70;;;;;;;9.17;100.00;99005.64;451079;1254;140639;-60
2024/03/02 10:38:29;;;;;;;30.60;23.50;;;;;;;9.44;100.00;99003.27;451231;1254;139642;-59
2024/03/02 10:48:36;;;;;;;29.90;23.10;;;;;;;9.68;100.00;99001.43;451322;1254;141057;-59
2024/03/02 10:58:43;;;;;;;32.10;21.50;;;;;;;9.74;100.00;99003.86;451278;1254;139381;-59
2024/03/02 11:08:50;;;;;;;33.60;24.30;;;;;;;9.80;100.00;98999.71;451434;1254;140362;-62
2024/03/02 11:18:58;;;;;;;34.50;23.50;;;;;;;10.09;100.00;98995.95;451502;1254;139646;-63
2024/03/02 11:29:05;;;;;;;;;;;;;;;10.30;100.00;98987.84;451298;1254;140380;-63
2024/03/02 11:39:10;;;;;;;32.20;22.60;;;;;;;10.28;100.00;98985.14;451371;1254;125967;-62
2024/03/02 11:49:21;;;;;;;28.00;22.30;;;;;;;10.12;100.00;98986.83;451575;1254;140115;-62
2024/03/02 11:59:27;;;;;;;32.30;24.20;;;;;;;9.85;100.00;98985.02;451156;1254;140885;-61
2024/03/02 12:09:33;;;;;;;31.90;23.20;;;;;;;9.68;100.00;98984.81;451495;1254;141581;-58
2024/03/02 12:19:39;;;;;;;33.40;25.20;;;;;;;9.67;100.00;98987.19;451270;1253;140023;-61
2024/03/02 12:29:47;;;;;;;34.60;26.30;;;;;;;9.65;100.00;98982.02;451319;1253;140433;-62
2024/03/02 12:39:55;;;;;;;31.70;23.70;;;;;;;9.77;100.00;98976.34;451328;1253;140057;-63
2024/03/02 12:50:04;;;;;;;34.90;25.10;;;;;;;9.98;100.00;98974.36;451526;1253;139404;-58
2024/03/02 13:00:12;;;;;;;33.00;22.60;;;;;;;10.17;100.00;98965.65;451313;1253;139715;-59
2024/03/02 13:10:19;;;;;;;29.30;24.50;;;;;;;10.12;100.00;98960.92;451440;1253;142287;-59
2024/03/02 13:20:31;;;;;;;31.30;22.70;;;;;;;9.95;100.00;98960.56;451522;1254;140712;-59
2024/03/02 13:30:37;;;;;;;34.00;26.20;;;;;;;9.85;100.00;98952.17;451460;1254;139419;-59
2024/03/02 13:40:43;;;;;;;29.60;22.00;;;;;;;9.85;100.00;98952.39;451428;1253;139978;-59
2024/03/02 13:50:49;;;;;;;35.30;24.70;;;;;;;9.84;100.00;98952.08;451235;1253;139696;-59
2024/03/02 14:00:56;;;;;;;37.90;26.90;;;;;;;9.92;100.00;98954.64;451399;1254;139756;-58
2024/03/02 14:11:02;;;;;;;34.50;26.50;;;;;;;10.02;100.00;98953.81;451434;1252;139670;-59
2024/03/02 14:21:08;;;;;;;33.40;24.40;;;;;;;10.09;100.00;98946.61;451726;1252;140126;-59
2024/03/02 14:31:14;;;;;;;34.50;23.80;;;;;;;10.11;100.00;98940.08;451857;1252;139548;-59
2024/03/02 14:41:20;;;;;;;35.30;24.50;;;;;;;10.02;100.00;98942.74;451725;1252;140086;-59
2024/03/02 14:51:26;;;;;;;37.00;26.70;;;;;;;9.90;100.00;98944.33;451666;1252;140045;-58
2024/03/02 15:01:33;;;;;;;30.70;22.30;;;;;;;9.81;100.00;98935.17;451786;1252;139771;-60
2024/03/02 15:11:39;;;;;;;40.90;26.70;;;;;;;9.72;100.00;98941.77;451613;1252;139966;-59
2024/03/02 15:21:48;;;;;;;35.50;23.00;;;;;;;9.59;100.00;98944.55;451713;1252;139997;-59
2024/03/02 15:31:54;;;;;;;31.20;24.60;;;;;;;9.46;100.00;98941.77;451838;1252;139729;-59
2024/03/02 15:42:00;;;;;;;31.90;24.40;;;;;;;9.34;100.00;98943.67;451840;1252;140139;-60
2024/03/02 15:52:06;;;;;;;36.70;25.50;;;;;;;9.21;100.00;98941.43;451755;1252;139526;-64
2024/03/02 16:02:12;;;;;;;34.10;24.50;;;;;;;9.05;100.00;98941.45;451790;1252;139413;-62
2024/03/02 16:12:18;;;;;;;33.60;25.20;;;;;;;8.92;100.00;98945.12;451712;1252;139615;-61
2024/03/02 16:22:26;;;;;;;33.70;25.20;;;;;;;8.75;100.00;98941.33;451684;1253;139500;-60
2024/03/02 16:32:34;;;;;;;41.00;28.00;;;;;;;8.56;100.00;98958.13;451602;1252;140190;-60
2024/03/02 16:42:38;;;;;;;;;;;;;;;8.35;100.00;98967.46;451803;1252;139334;-60
2024/03/02 16:52:45;;;;;;;43.40;31.80;;;;;;;8.19;100.00;98967.29;451654;1252;126025;-58
2024/03/02 17:02:52;;;;;;;50.20;32.60;;;;;;;8.06;100.00;98971.55;451786;1252;139873;-60
2024/03/02 17:12:59;;;;;;;50.60;31.60;;;;;;;7.95;100.00;98979.90;451895;1252;139217;-58
2024/03/02 17:23:07;;;;;;;55.20;37.20;;;;;;;7.85;100.00;98988.04;451813;1252;139213;-60
2024/03/02 17:33:11;;;;;;;;;;;;;;;7.74;100.00;98990.27;451770;1252;142232;-60
2024/03/02 17:43:18;;;;;;;61.50;43.80;;;;;;;7.66;100.00;98988.02;451775;1252;126013;-59
2024/03/02 17:53:24;;;;;;;52.70;35.10;;;;;;;7.56;100.00;98995.20;451850;1252;139894;-60
2024/03/02 18:03:31;;;;;;;52.50;39.10;;;;;;;7.45;100.00;98989.47;451832;1252;139816;-59
2024/03/02 18:13:39;;;;;;;55.90;36.40;;;;;;;7.34;100.00;98993.42;451971;1252;140230;-60
2024/03/02 18:23:45;;;;;;;53.00;36.00;;;;;;;7.22;100.00;98996.70;451829;1252;139949;-60
2024/03/02 18:33:51;;;;;;;60.20;38.40;;;;;;;7.09;100.00;98987.23;451706;1253;139843;-59
2024/03/02 18:43:57;;;;;;;54.60;35.50;;;;;;;6.96;100.00;98988.10;448020;1252;5130295;-60
2024/03/02 18:54:03;;;;;;;48.70;33.70;;;;;;;6.84;100.00;98980.16;451892;1252;139893;-59
2024/03/02 19:04:10;;;;;;;51.10;33.50;;;;;;;6.72;100.00;98978.06;451701;1252;139720;-62
2024/03/02 19:14:16;;;;;;;44.60;32.30;;;;;;;6.61;100.00;98986.32;451942;1252;140057;-62
2024/03/02 19:24:24;;;;;;;55.70;36.80;;;;;;;6.50;100.00;98991.50;451879;1253;139798;-63
2024/03/02 19:34:30;;;;;;;46.50;34.40;;;;;;;6.43;100.00;98988.21;451819;1252;140008;-63
2024/03/02 19:44:36;;;;;;;52.10;35.00;;;;;;;6.40;100.00;98991.17;451842;1252;139774;-63
2024/03/02 19:54:42;;;;;;;46.50;33.30;;;;;;;6.42;100.00;98983.05;451962;1252;139983;-63
2024/03/02 20:04:48;;;;;;;50.00;36.00;;;;;;;6.45;100.00;98979.04;451835;1252;139388;-60
2024/03/02 20:14:54;;;;;;;39.50;30.60;;;;;;;6.54;100.00;98976.64;451894;1252;139766;-60
2024/03/02 20:25:00;;;;;;;56.30;35.70;;;;;;;6.58;100.00;98976.73;452039;1252;139919;-62
2024/03/02 20:35:08;;;;;;;51.30;36.20;;;;;;;6.65;100.00;98974.81;451970;1252;139183;-60
2024/03/02 20:45:18;;;;;;;;;;;;;;;6.70;100.00;98969.99;451914;1253;139826;-60
2024/03/02 20:55:24;;;;;;;46.30;32.90;;;;;;;6.73;100.00;98970.66;452010;1253;124493;-61
2024/03/02 21:05:31;;;;;;;46.10;32.00;;;;;;;6.77;100.00;98970.83;451750;1253;139704;-59
2024/03/02 21:15:39;;;;;;;53.30;36.50;;;;;;;6.80;100.00;98975.48;451959;1253;140319;-59
2024/03/02 21:25:45;;;;;;;51.10;34.10;;;;;;;6.81;100.00;98970.39;452041;1253;139380;-60
2024/03/02 21:35:51;;;;;;;40.50;30.90;;;;;;;6.84;100.00;98966.06;451876;1252;139175;-60
2024/03/02 21:45:57;;;;;;;42.10;33.20;;;;;;;6.83;100.00;98961.03;451818;1252;139912;-59
2024/03/02 21:56:03;;;;;;;48.80;35.00;;;;;;;6.80;100.00;98958.98;451962;1252;139390;-59
2024/03/02 22:06:09;;;;;;;42.00;31.10;;;;;;;6.73;100.00;98956.78;451907;1253;139795;-59
2024/03/02 22:16:15;;;;;;;49.50;34.00;;;;;;;6.62;100.00;98950.27;451903;1252;139743;-59
2024/03/02 22:26:21;;;;;;;43.30;31.80;;;;;;;6.53;100.00;98952.16;451898;1253;139341;-60
2024/03/02 22:36:28;;;;;;;46.90;32.60;;;;;;;6.43;100.00;98947.14;451818;1254;139378;-65
2024/03/02 22:46:34;;;;;;;41.80;31.20;;;;;;;6.37;100.00;98954.47;451563;1253;139894;-63
2024/03/02 22:56:40;;;;;;;46.20;29.70;;;;;;;6.32;100.00;98955.25;451509;1253;139399;-60
2024/03/02 23:06:46;;;;;;;44.10;31.50;;;;;;;6.26;100.00;98954.40;451915;1253;139398;-60
2024/03/02 23:16:52;;;;;;;38.50;28.70;;;;;;;6.19;100.00;98947.46;451628;1252;139807;-65
2024/03/02 23:26:58;;;;;;;42.80;29.50;;;;;;;6.14;100.00;98948.78;451752;1253;139935;-64
2024/03/02 23:37:04;;;;;;;42.60;31.80;;;;;;;6.11;100.00;98951.41;451773;1252;139732;-64
2024/03/02 23:47:10;;;;;;;48.80;33.20;;;;;;;6.06;100.00;98944.87;451637;1253;139859;-60
2024/03/02 23:57:16;;;;;;;49.10;35.10;;;;;;;5.97;100.00;98933.56;451650;1254;140047;-60
